Millington, TN

11:17 AM CDT on October 22, 2014 (GMT -0500)
Memphis International | Change Station
CLOSE
Current Station
Airport
Location: Memphis,
Elevation: 331 ft
Nearby Weather Stations

Elev 331 ft 35.06 °N, 89.99 °W | Updated 23 minutes ago

Clear
Clear
62 °F
Feels Like 62 °F
N
12
Wind Variable Wind from ENE

Today
High -- | Low -- °F
--% Chance of Precip.
Yesterday
High -- | Low -- °F
Precip. -- in
7:11 AM 6:15 PM
Waning Crescent, 2% visible
Pressure 30.25 in
Visibility 10.0 miles
Clouds Clear
Dew Point 40 °F
Humidity 44%
Rainfall 0.00 in
Snow Depth Not available.
UV 4 out of 12
Pollen 1.90 out of 12
Ozone Good
PM2.5 Good
Flu Activity Sporadic
METAR KMEM 221554Z 07010KT 10SM CLR 17/04 A3026 RMK AO2 SLP244 T01670044

More Conditions Fewer Conditions

Pressure 30.25 in
Visibility 10.0 miles
Clouds Clear
Dew Point 40 °F
Humidity 44%
Rainfall 0.00 in
Snow Depth Not available.
UV 4 out of 12
Pollen 1.90 out of 12
Ozone Good
PM2.5 Good
Flu Activity Sporadic
METAR KMEM 221554Z 07010KT 10SM CLR 17/04 A3026 RMK AO2 SLP244 T01670044

More Conditions Fewer Conditions

10-Day Weather Forecast

Almanac

Astronomy

Oct. 22, 2014 Rise Set
Actual Time 7:11 AM CDT 6:15 PM CDT
Civil Twilight 6:46 AM CDT 6:41 PM CDT
Nautical Twilight 6:16 AM CDT 7:11 PM CDT
Astronomical Twilight 5:46 AM CDT 7:40 PM CDT
Moon 5:56 AM CDT 5:40 PM CDT
Length of Visible Light 11h 55m
Length of Day
11h 03m
Tomorrow will be 2m 5s shorter.
Waning Crescent, 2% of the Moon is Illuminated
Today
Waning Crescent
Oct 23
New
Oct 30
First Quarter
Nov 6
Full
Nov 14
Last Quarter

Today's Extremes

State Highs State Lows

Community

WunderPhotos

Upload Photos

1,763,955 photos uploaded!

Nearby

Air Quality

  Air Quality AQ Index Pollutant
Yesterday Good
PM2.5
Yesterday Good
OZONE
Current Good
PM2.5
Current Good
OZONE
Wednesday Good
OZONE
Wednesday Good
PM2.5
Thursday Good
OZONE
Thursday Good
PM2.5

Snow Depth

Station Depth Elevation
No new snow has been reported.

Earthquake Activity

City Distance Mag. Time & Date
No recent earthquake activity has been reported nearby.
Minimum magnitude displayed is 2.5.

Coastal Water Temperatures

Place Temperature
No Stations Reporting

Nearby Weather Stations